createdAt,value
2018-12-14T00:01:49.837Z,2.21
2018-12-14T00:04:18.904Z,2.14
2018-12-14T00:06:48.007Z,2.08
2018-12-14T00:09:15.090Z,2.54
2018-12-14T00:11:45.593Z,2.64
2018-12-14T00:14:11.271Z,2.35
2018-12-14T00:16:38.309Z,2.29
2018-12-14T00:19:05.309Z,2.28
2018-12-14T00:21:33.834Z,2.29
2018-12-14T00:24:00.878Z,2.26
2018-12-14T00:26:27.894Z,2.17
2018-12-14T00:28:54.907Z,2.12
2018-12-14T00:31:22.520Z,2.13
2018-12-14T00:33:49.538Z,2.10
2018-12-14T00:36:16.648Z,2.17
2018-12-14T00:38:43.834Z,2.16
2018-12-14T00:41:10.870Z,1.99
2018-12-14T00:43:37.966Z,2.08
2018-12-14T00:46:05.332Z,2.16
2018-12-14T00:48:32.349Z,2.16
2018-12-14T00:50:59.552Z,2.12
2018-12-14T00:53:26.635Z,2.02
2018-12-14T00:55:53.661Z,1.97
2018-12-14T00:58:21.375Z,2.04
2018-12-14T01:00:48.600Z,2.07
2018-12-14T01:03:15.687Z,2.04
2018-12-14T01:05:42.767Z,1.96
2018-12-14T01:08:09.825Z,1.99
2018-12-14T01:10:36.885Z,1.97
2018-12-14T01:13:04.078Z,1.94
2018-12-14T01:15:31.153Z,2.05
2018-12-14T01:17:58.302Z,1.96
2018-12-14T01:20:25.345Z,1.95
2018-12-14T01:22:59.352Z,1.83
2018-12-14T01:25:27.482Z,1.85
2018-12-14T01:27:54.742Z,1.92
2018-12-14T01:30:21.930Z,1.98
2018-12-14T01:32:49.222Z,1.92
2018-12-14T01:35:16.270Z,1.94
2018-12-14T01:37:43.771Z,1.94
2018-12-14T01:40:10.854Z,1.94
2018-12-14T01:42:37.897Z,1.93
2018-12-14T01:45:05.597Z,1.88
2018-12-14T01:47:32.898Z,1.90
2018-12-14T01:50:00.321Z,1.94
2018-12-14T01:52:27.382Z,1.95
2018-12-14T01:54:55.289Z,1.84
2018-12-14T01:57:22.445Z,1.89
2018-12-14T01:59:49.490Z,1.81
2018-12-14T02:02:16.515Z,1.82
2018-12-14T02:04:43.582Z,1.83
2018-12-14T02:07:10.741Z,1.83
2018-12-14T02:09:37.762Z,1.83
2018-12-14T02:12:11.102Z,1.82
2018-12-14T02:14:34.298Z,1.88
2018-12-14T02:17:01.329Z,1.85
2018-12-14T02:19:28.517Z,1.86
2018-12-14T02:22:02.975Z,1.87
2018-12-14T02:24:30.071Z,1.90
2018-12-14T02:26:57.496Z,1.84
2018-12-14T02:29:24.534Z,1.97
2018-12-14T02:31:51.783Z,1.93
2018-12-14T02:34:19.222Z,1.99
2018-12-14T02:36:46.362Z,1.99
2018-12-14T02:39:13.642Z,1.98
2018-12-14T02:41:40.768Z,1.99
2018-12-14T02:44:07.850Z,1.97
2018-12-14T02:46:35.384Z,1.98
2018-12-14T02:49:02.518Z,1.97
2018-12-14T02:51:29.574Z,1.96
2018-12-14T02:53:56.625Z,2.04
2018-12-14T02:56:23.921Z,2.06
2018-12-14T02:58:50.962Z,2.01
2018-12-14T03:01:17.997Z,1.99
2018-12-14T03:03:45.046Z,2.08
2018-12-14T03:06:12.094Z,2.07
2018-12-14T03:08:39.495Z,2.08
2018-12-14T03:11:06.541Z,2.16
2018-12-14T03:13:33.576Z,2.25
2018-12-14T03:16:02.027Z,2.25
2018-12-14T03:18:29.883Z,2.11
2018-12-14T03:20:56.923Z,2.09
2018-12-14T03:23:23.982Z,2.02
2018-12-14T03:25:51.351Z,1.96
2018-12-14T03:28:18.423Z,1.96
2018-12-14T03:30:45.821Z,1.98
2018-12-14T03:33:12.926Z,1.93
2018-12-14T03:35:39.962Z,1.95
2018-12-14T03:38:07.146Z,1.88
2018-12-14T03:40:34.302Z,1.82
2018-12-14T03:43:01.935Z,1.93
2018-12-14T03:45:29.085Z,1.93
2018-12-14T03:47:56.215Z,1.94
2018-12-14T03:50:23.230Z,1.92
2018-12-14T03:52:51.113Z,1.90
2018-12-14T03:55:24.682Z,1.88
2018-12-14T03:57:52.948Z,1.88
2018-12-14T04:00:20.390Z,1.82
2018-12-14T04:02:47.949Z,1.59
2018-12-14T04:05:15.115Z,1.88
2018-12-14T04:07:42.263Z,1.91
2018-12-14T04:10:09.388Z,1.92
2018-12-14T04:16:12.673Z,1.82
2018-12-14T04:18:39.739Z,1.84
2018-12-14T04:21:06.819Z,1.85
2018-12-14T04:23:33.857Z,1.77
2018-12-14T04:26:01.012Z,1.80
2018-12-14T04:28:28.023Z,1.81
2018-12-14T04:30:55.049Z,1.79
2018-12-14T04:33:22.222Z,1.79
2018-12-14T04:35:49.503Z,1.84
2018-12-14T04:38:18.565Z,1.82
2018-12-14T04:40:45.582Z,1.81
2018-12-14T04:43:12.948Z,1.75
2018-12-14T04:45:39.986Z,1.78
2018-12-14T04:48:07.010Z,1.70
2018-12-14T04:50:34.154Z,1.59
2018-12-14T04:53:01.274Z,1.60
2018-12-14T04:55:28.677Z,1.69
2018-12-14T04:57:55.880Z,1.71
2018-12-14T05:00:22.920Z,1.73
2018-12-14T05:02:51.068Z,1.74
2018-12-14T05:05:18.576Z,1.71
2018-12-14T05:07:46.695Z,1.77
2018-12-14T05:10:14.528Z,1.80
2018-12-14T05:12:42.092Z,1.77
2018-12-14T05:15:09.648Z,1.66
2018-12-14T05:17:36.979Z,1.68
2018-12-14T05:20:04.491Z,1.76
2018-12-14T05:22:31.569Z,1.80
2018-12-14T05:24:58.593Z,1.75
2018-12-14T05:27:25.728Z,1.78
2018-12-14T05:29:53.238Z,1.80
2018-12-14T05:32:20.248Z,1.79
2018-12-14T05:34:54.618Z,1.84
2018-12-14T05:37:21.763Z,1.78
2018-12-14T05:39:49.057Z,1.68
2018-12-14T05:42:16.414Z,1.72
2018-12-14T05:44:44.452Z,1.83
2018-12-14T05:47:11.469Z,1.79
2018-12-14T05:49:38.681Z,1.74
2018-12-14T05:52:07.758Z,1.84
2018-12-14T05:54:34.783Z,1.98
2018-12-14T05:57:01.819Z,1.99
2018-12-14T05:59:28.864Z,1.90
2018-12-14T06:01:56.270Z,1.84
2018-12-14T06:04:23.285Z,1.78
2018-12-14T06:06:50.495Z,1.89
2018-12-14T06:09:17.781Z,1.86
2018-12-14T06:11:44.801Z,1.95
2018-12-14T06:14:12.033Z,1.80
2018-12-14T06:16:39.177Z,1.73
2018-12-14T06:19:06.204Z,1.69
2018-12-14T06:21:33.462Z,1.74
2018-12-14T06:24:01.052Z,1.86
2018-12-14T06:26:28.200Z,1.82
2018-12-14T06:28:55.333Z,1.89
2018-12-14T06:31:22.357Z,1.81
2018-12-14T06:33:49.396Z,1.79
2018-12-14T06:36:16.869Z,1.82
2018-12-14T06:38:43.929Z,1.76
2018-12-14T06:41:11.969Z,1.70
2018-12-14T06:43:39.013Z,1.68
2018-12-14T06:46:06.559Z,1.81
2018-12-14T06:48:33.603Z,1.81
2018-12-14T06:51:00.769Z,1.77
2018-12-14T06:53:28.910Z,1.75
2018-12-14T06:55:55.939Z,1.83
2018-12-14T06:58:23.219Z,1.71
2018-12-14T07:00:50.253Z,1.75
2018-12-14T07:03:17.377Z,1.66
2018-12-14T07:05:44.611Z,1.67
2018-12-14T07:08:11.613Z,1.73
2018-12-14T07:10:39.750Z,1.69
2018-12-14T07:13:06.779Z,1.71
2018-12-14T07:15:33.966Z,3.54
2018-12-14T07:18:01.017Z,4.34
2018-12-14T07:20:28.355Z,4.18
2018-12-14T07:22:55.377Z,4.21
2018-12-14T07:25:22.728Z,4.39
2018-12-14T07:27:50.866Z,3.91
2018-12-14T07:30:17.901Z,4.97
2018-12-14T07:35:18.973Z,5.42
2018-12-14T07:37:46.041Z,5.15
2018-12-14T07:40:20.134Z,4.98
2018-12-14T07:42:47.720Z,5.86
2018-12-14T07:45:14.807Z,5.08
2018-12-14T07:47:41.833Z,4.75
2018-12-14T07:50:08.972Z,5.35
2018-12-14T07:52:36.069Z,5.78
2018-12-14T07:55:03.451Z,5.36
2018-12-14T07:57:30.511Z,6.23
2018-12-14T07:59:57.537Z,5.76
2018-12-14T08:02:24.577Z,5.67
2018-12-14T08:04:52.070Z,5.02
2018-12-14T08:07:19.127Z,5.27
2018-12-14T08:09:46.238Z,4.69
2018-12-14T08:12:13.364Z,4.82
2018-12-14T08:14:40.622Z,5.40
2018-12-14T08:17:08.122Z,5.42
2018-12-14T08:19:35.169Z,4.39
2018-12-14T08:22:02.326Z,4.17
2018-12-14T08:24:29.769Z,3.62
2018-12-14T08:26:57.130Z,3.54
2018-12-14T08:29:24.170Z,3.03
2018-12-14T08:31:51.301Z,2.84
2018-12-14T08:34:18.724Z,2.58
2018-12-14T08:36:45.911Z,2.44
2018-12-14T08:39:13.314Z,2.41
2018-12-14T08:41:40.423Z,2.37
2018-12-14T08:44:07.424Z,2.43
2018-12-14T08:46:34.952Z,2.35
2018-12-14T08:49:02.122Z,2.31
2018-12-14T08:51:29.137Z,2.29
2018-12-14T08:53:56.493Z,2.26
2018-12-14T08:56:23.509Z,2.30
2018-12-14T08:58:50.607Z,2.34
2018-12-14T09:01:18.370Z,2.40
2018-12-14T09:03:45.400Z,2.45
2018-12-14T09:06:12.433Z,2.42
2018-12-14T09:08:39.545Z,2.42
2018-12-14T09:11:06.707Z,2.44
2018-12-14T09:13:33.730Z,2.44
2018-12-14T09:16:01.043Z,2.46
2018-12-14T09:18:28.063Z,2.37
2018-12-14T09:21:00.892Z,2.38
2018-12-14T09:23:24.687Z,2.40
2018-12-14T09:25:51.822Z,2.26
2018-12-14T09:28:18.846Z,2.28
2018-12-14T09:30:46.011Z,2.27
2018-12-14T09:33:13.031Z,2.30
2018-12-14T09:35:40.478Z,2.24
2018-12-14T09:38:07.560Z,2.33
2018-12-14T09:40:34.582Z,2.32
2018-12-14T09:43:01.706Z,2.34
2018-12-14T09:45:29.414Z,2.50
2018-12-14T09:47:56.563Z,2.51
2018-12-14T09:50:23.729Z,2.41
2018-12-14T09:52:50.784Z,2.26
2018-12-14T09:55:17.843Z,2.32
2018-12-14T09:57:44.957Z,2.37
2018-12-14T10:00:12.014Z,2.31
2018-12-14T10:02:39.158Z,2.25
2018-12-14T10:05:07.879Z,2.46
2018-12-14T10:07:35.156Z,2.71
2018-12-14T10:10:02.311Z,2.93
2018-12-14T10:12:29.978Z,2.63
2018-12-14T10:14:57.025Z,2.52
2018-12-14T10:17:24.390Z,2.35
2018-12-14T10:19:51.846Z,2.41
2018-12-14T10:22:18.986Z,2.36
2018-12-14T10:24:46.113Z,2.45
2018-12-14T10:27:13.581Z,2.48
2018-12-14T10:29:40.910Z,2.47
2018-12-14T10:32:08.162Z,2.43
2018-12-14T10:34:35.291Z,2.42
2018-12-14T10:37:02.441Z,2.48
2018-12-14T10:39:30.757Z,2.48
2018-12-14T10:41:58.097Z,2.48
2018-12-14T10:44:25.151Z,2.53
2018-12-14T10:46:52.262Z,2.52
2018-12-14T10:49:19.354Z,2.31
2018-12-14T10:51:46.794Z,2.42
2018-12-14T10:54:14.162Z,2.42
2018-12-14T10:56:41.177Z,2.51
2018-12-14T10:59:08.487Z,2.50
2018-12-14T11:01:41.601Z,2.56
2018-12-14T11:04:09.186Z,2.56
2018-12-14T11:06:37.338Z,2.45
2018-12-14T11:09:06.172Z,2.56
2018-12-14T11:11:35.353Z,2.60
2018-12-14T11:14:03.171Z,2.60
2018-12-14T11:16:30.833Z,2.66
2018-12-14T11:18:57.973Z,2.84
2018-12-14T11:21:25.334Z,2.77
2018-12-14T11:23:52.348Z,2.72
2018-12-14T11:26:19.950Z,2.60
2018-12-14T11:28:47.158Z,2.65
2018-12-14T11:31:14.175Z,2.66
2018-12-14T11:33:41.173Z,2.64
2018-12-14T11:36:08.310Z,2.62
2018-12-14T11:38:35.842Z,2.57
2018-12-14T11:41:02.994Z,2.64
2018-12-14T11:43:30.071Z,2.61
2018-12-14T11:45:57.075Z,2.55
2018-12-14T11:48:24.551Z,2.50
2018-12-14T11:50:51.605Z,2.59
2018-12-14T11:53:19.531Z,2.49
2018-12-14T11:55:46.586Z,2.55
2018-12-14T11:58:17.244Z,2.53
2018-12-14T12:00:45.055Z,2.48
2018-12-14T12:03:12.062Z,2.53
2018-12-14T12:05:39.238Z,2.47
2018-12-14T12:08:08.529Z,2.48
2018-12-14T12:10:35.829Z,2.44
2018-12-14T12:13:03.021Z,2.44
2018-12-14T12:15:30.318Z,2.39
2018-12-14T12:17:57.606Z,2.36
2018-12-14T12:20:24.638Z,2.42
2018-12-14T12:22:51.702Z,2.38
2018-12-14T12:25:19.141Z,2.42
2018-12-14T12:27:46.412Z,2.40
2018-12-14T12:30:13.543Z,2.34
2018-12-14T12:32:40.875Z,2.21
2018-12-14T12:35:08.199Z,2.24
2018-12-14T12:37:35.878Z,2.42
2018-12-14T12:40:03.116Z,2.60
2018-12-14T12:42:31.441Z,2.88
2018-12-14T12:44:58.708Z,2.52
2018-12-14T12:47:25.715Z,4.13
2018-12-14T12:49:53.161Z,4.78
2018-12-14T12:52:21.143Z,4.75
2018-12-14T12:54:48.375Z,4.98
2018-12-14T12:57:15.447Z,5.05
2018-12-14T12:59:42.620Z,4.75
2018-12-14T13:02:10.246Z,5.05
2018-12-14T13:04:38.885Z,4.89
2018-12-14T13:07:06.300Z,5.58
2018-12-14T13:09:33.489Z,5.26
2018-12-14T13:12:00.674Z,4.99
2018-12-14T13:14:27.861Z,4.93
2018-12-14T13:16:54.910Z,4.92
2018-12-14T13:19:29.080Z,4.91
2018-12-14T13:21:56.151Z,4.62
2018-12-14T13:24:23.189Z,4.42
2018-12-14T13:26:50.245Z,4.59
2018-12-14T13:29:18.023Z,3.63
2018-12-14T13:31:45.053Z,3.18
2018-12-14T13:34:12.239Z,2.95
2018-12-14T13:36:39.617Z,2.70
2018-12-14T13:39:07.265Z,2.63
2018-12-14T13:41:36.461Z,2.71
2018-12-14T13:44:03.902Z,2.61
2018-12-14T13:46:31.033Z,2.62
2018-12-14T13:49:02.815Z,2.56
2018-12-14T13:51:27.525Z,2.60
2018-12-14T13:53:54.658Z,2.50
2018-12-14T13:56:21.689Z,2.35
2018-12-14T13:58:48.702Z,2.41
2018-12-14T14:01:15.762Z,2.29
2018-12-14T14:03:43.108Z,2.39
2018-12-14T14:06:10.134Z,2.48
2018-12-14T14:08:37.370Z,2.95
2018-12-14T14:11:04.520Z,2.76
2018-12-14T14:13:32.011Z,2.45
2018-12-14T14:16:00.297Z,2.23
2018-12-14T14:18:28.761Z,2.18
2018-12-14T14:20:55.784Z,2.13
2018-12-14T14:23:22.817Z,2.24
2018-12-14T14:25:50.582Z,2.19
2018-12-14T14:28:17.633Z,2.21
2018-12-14T14:30:44.670Z,2.19
2018-12-14T14:33:19.050Z,2.10
2018-12-14T14:35:46.346Z,2.09
2018-12-14T14:38:13.391Z,2.06
2018-12-14T14:40:40.792Z,2.09
2018-12-14T14:43:07.801Z,2.04
2018-12-14T14:45:35.088Z,2.09
2018-12-14T14:48:02.447Z,2.08
2018-12-14T14:50:29.454Z,2.09
2018-12-14T14:52:56.471Z,2.12
2018-12-14T14:55:23.530Z,2.03
2018-12-14T14:57:51.470Z,2.05
2018-12-14T15:00:18.606Z,1.99
2018-12-14T15:02:45.806Z,1.95
2018-12-14T15:05:12.873Z,2.09
2018-12-14T15:07:40.015Z,2.76
2018-12-14T15:10:07.443Z,2.55
2018-12-14T15:12:34.951Z,2.50
2018-12-14T15:15:07.054Z,2.50
2018-12-14T15:17:34.523Z,2.61
2018-12-14T15:20:01.654Z,2.73
2018-12-14T15:22:29.661Z,2.50
2018-12-14T15:24:56.971Z,2.80
2018-12-14T15:27:24.011Z,2.43
2018-12-14T15:29:51.161Z,2.17
2018-12-14T15:32:19.773Z,1.94
2018-12-14T15:34:47.777Z,2.01
2018-12-14T15:37:15.834Z,1.94
2018-12-14T15:39:43.132Z,1.84
2018-12-14T15:42:10.270Z,1.86
2018-12-14T15:44:37.294Z,1.86
2018-12-14T15:47:04.853Z,1.90
2018-12-14T15:49:32.309Z,1.86
2018-12-14T15:52:00.594Z,1.87
2018-12-14T15:54:28.089Z,1.88
2018-12-14T15:56:55.322Z,1.90
2018-12-14T15:59:22.357Z,1.88
2018-12-14T16:01:49.548Z,1.84
2018-12-14T16:04:16.806Z,1.92
2018-12-14T16:06:44.137Z,1.93
2018-12-14T16:09:11.217Z,1.98
2018-12-14T16:11:38.846Z,1.87
2018-12-14T16:14:06.347Z,1.92
2018-12-14T16:16:34.022Z,1.94
2018-12-14T16:19:01.266Z,3.69
2018-12-14T16:21:28.683Z,5.40
2018-12-14T16:23:56.023Z,5.63
2018-12-14T16:26:23.485Z,5.79
2018-12-14T16:28:50.749Z,5.60
2018-12-14T16:31:17.771Z,6.12
2018-12-14T16:33:44.786Z,6.06
2018-12-14T16:36:11.812Z,6.36
2018-12-14T16:38:38.958Z,5.80
2018-12-14T16:41:06.373Z,5.92
2018-12-14T16:43:33.411Z,5.84
2018-12-14T16:46:00.558Z,6.08
2018-12-14T16:48:27.858Z,5.90
2018-12-14T16:50:54.885Z,4.33
2018-12-14T16:53:22.065Z,3.29
2018-12-14T16:55:49.105Z,2.81
2018-12-14T16:58:16.331Z,2.64
2018-12-14T17:00:43.770Z,2.56
2018-12-14T17:03:10.939Z,2.28
2018-12-14T17:05:41.094Z,2.24
2018-12-14T17:08:08.565Z,2.29
2018-12-14T17:10:35.859Z,2.24
2018-12-14T17:13:03.034Z,2.36
2018-12-14T17:15:33.295Z,2.36
2018-12-14T17:17:59.461Z,1.99
2018-12-14T17:20:26.506Z,1.96
2018-12-14T17:22:53.726Z,2.04
2018-12-14T17:25:20.763Z,1.89
2018-12-14T17:27:47.795Z,1.84
2018-12-14T17:30:14.834Z,1.84
2018-12-14T17:32:42.146Z,1.88
2018-12-14T17:35:09.415Z,1.85
2018-12-14T17:37:36.660Z,1.77
2018-12-14T17:40:03.867Z,1.73
2018-12-14T17:42:33.037Z,1.76
2018-12-14T17:45:00.503Z,1.74
2018-12-14T17:47:27.589Z,1.68
2018-12-14T17:50:02.122Z,1.60
2018-12-14T17:52:29.369Z,1.62
2018-12-14T17:54:57.056Z,1.66
2018-12-14T17:57:24.087Z,1.60
2018-12-14T17:59:51.106Z,1.49
2018-12-14T18:02:18.286Z,1.55
2018-12-14T18:04:45.320Z,1.60
2018-12-14T18:07:12.599Z,1.53
2018-12-14T18:09:39.634Z,1.53
2018-12-14T18:12:07.115Z,1.55
2018-12-14T18:14:34.239Z,1.53
2018-12-14T18:17:02.641Z,1.62
2018-12-14T18:19:29.686Z,1.68
2018-12-14T18:21:56.989Z,1.55
2018-12-14T18:24:24.093Z,1.55
2018-12-14T18:26:51.289Z,1.37
2018-12-14T18:29:18.548Z,1.52
2018-12-14T18:31:45.611Z,1.59
2018-12-14T18:34:13.982Z,1.49
2018-12-14T18:36:41.291Z,1.61
2018-12-14T18:39:08.320Z,1.37
2018-12-14T18:41:38.591Z,1.35
2018-12-14T18:44:05.727Z,1.40
2018-12-14T18:46:33.113Z,1.37
2018-12-14T18:49:00.425Z,1.42
2018-12-14T18:51:27.793Z,1.42
2018-12-14T18:53:58.854Z,1.41
2018-12-14T18:56:26.277Z,1.43
2018-12-14T18:58:53.309Z,1.48
2018-12-14T19:01:20.346Z,1.42
2018-12-14T19:03:47.778Z,1.48
2018-12-14T19:06:14.809Z,1.42
2018-12-14T19:08:41.990Z,1.45
2018-12-14T19:11:09.167Z,1.37
2018-12-14T19:13:36.215Z,1.22
2018-12-14T19:16:03.413Z,1.28
2018-12-14T19:18:30.458Z,1.33
2018-12-14T19:20:57.487Z,1.16
2018-12-14T19:23:24.639Z,1.35
2018-12-14T19:25:52.122Z,1.48
2018-12-14T19:28:19.158Z,1.80
2018-12-14T19:30:46.183Z,1.57
2018-12-14T19:33:13.490Z,1.49
2018-12-14T19:35:40.722Z,1.55
2018-12-14T19:38:07.750Z,1.99
2018-12-14T19:40:34.787Z,2.15
2018-12-14T19:43:01.894Z,1.80
2018-12-14T19:45:29.026Z,1.85
2018-12-14T19:47:56.706Z,1.39
2018-12-14T19:50:23.740Z,1.67
2018-12-14T19:52:50.763Z,1.94
2018-12-14T19:55:18.226Z,1.83
2018-12-14T19:57:45.438Z,1.52
2018-12-14T20:00:12.626Z,1.66
2018-12-14T20:02:39.938Z,1.66
2018-12-14T20:05:07.682Z,1.82
2018-12-14T20:07:34.926Z,1.50
2018-12-14T20:10:01.995Z,1.40
2018-12-14T20:12:29.404Z,1.30
2018-12-14T20:14:56.419Z,1.22
2018-12-14T20:17:23.443Z,1.05
2018-12-14T20:19:57.628Z,1.03
2018-12-14T20:22:24.667Z,1.01
2018-12-14T20:24:51.748Z,1.06
2018-12-14T20:27:18.805Z,1.15
2018-12-14T20:29:45.998Z,1.12
2018-12-14T20:32:13.785Z,1.07
2018-12-14T20:34:40.894Z,1.11
2018-12-14T20:37:07.906Z,1.01
2018-12-14T20:39:35.037Z,0.99
2018-12-14T20:42:02.183Z,3.42
2018-12-14T20:44:30.633Z,4.07
2018-12-14T20:46:59.613Z,4.67
2018-12-14T20:49:26.904Z,4.76
2018-12-14T20:51:54.014Z,4.44
2018-12-14T20:54:21.061Z,4.21
2018-12-14T20:56:51.553Z,3.71
2018-12-14T20:59:17.250Z,3.90
2018-12-14T21:01:44.265Z,4.43
2018-12-14T21:04:11.416Z,4.53
2018-12-14T21:06:38.672Z,4.26
2018-12-14T21:09:06.562Z,4.71
2018-12-14T21:11:35.744Z,4.15
2018-12-14T21:14:04.944Z,4.89
2018-12-14T21:16:32.444Z,4.77
2018-12-14T21:18:59.558Z,4.53
2018-12-14T21:21:26.703Z,4.51
2018-12-14T21:23:53.854Z,4.17
2018-12-14T21:26:20.905Z,3.73
2018-12-14T21:28:48.368Z,4.73
2018-12-14T21:31:15.690Z,4.66
2018-12-14T21:33:42.779Z,4.23
2018-12-14T21:36:09.802Z,4.79
2018-12-14T21:38:37.718Z,4.08
2018-12-14T21:41:04.757Z,2.71
2018-12-14T21:43:31.774Z,2.19
2018-12-14T21:45:59.077Z,1.84
2018-12-14T21:48:26.110Z,1.59
2018-12-14T21:50:53.689Z,1.53
2018-12-14T21:53:20.821Z,1.48
2018-12-14T21:55:47.843Z,1.43
2018-12-14T21:58:14.879Z,1.32
2018-12-14T22:00:42.850Z,1.31
2018-12-14T22:03:09.893Z,1.30
2018-12-14T22:05:37.027Z,1.37
2018-12-14T22:08:04.330Z,1.19
2018-12-14T22:10:31.880Z,1.10
2018-12-14T22:12:59.491Z,1.12
2018-12-14T22:15:26.549Z,1.10
2018-12-14T22:17:53.570Z,1.00
2018-12-14T22:20:20.869Z,0.97
2018-12-14T22:22:48.177Z,0.98
2018-12-14T22:25:15.864Z,1.70
2018-12-14T22:27:43.050Z,1.29
2018-12-14T22:30:11.094Z,1.19
2018-12-14T22:32:38.345Z,0.97
2018-12-14T22:35:06.082Z,0.86
2018-12-14T22:37:33.791Z,0.90
2018-12-14T22:40:01.194Z,0.92
2018-12-14T22:42:28.516Z,0.93
2018-12-14T22:44:56.558Z,1.02
2018-12-14T22:47:23.783Z,1.00
2018-12-14T22:49:50.989Z,0.90
2018-12-14T22:52:18.217Z,0.86
2018-12-14T22:54:45.428Z,0.79
2018-12-14T22:57:12.804Z,0.84
2018-12-14T22:59:40.335Z,0.87
2018-12-14T23:02:07.529Z,0.79
2018-12-14T23:04:34.837Z,0.75
2018-12-14T23:07:02.393Z,0.73
2018-12-14T23:09:29.747Z,0.67
2018-12-14T23:11:56.973Z,0.76
2018-12-14T23:14:24.309Z,0.83
2018-12-14T23:16:52.388Z,0.79
2018-12-14T23:19:20.207Z,0.88
2018-12-14T23:21:53.965Z,0.97
2018-12-14T23:24:21.013Z,1.29
2018-12-14T23:26:48.153Z,1.47
2018-12-14T23:29:15.914Z,1.23
2018-12-14T23:31:43.002Z,1.05
2018-12-14T23:34:10.134Z,0.87
2018-12-14T23:36:37.161Z,0.91
2018-12-14T23:39:05.892Z,0.85
2018-12-14T23:41:35.239Z,0.74
2018-12-14T23:44:02.588Z,0.66
2018-12-14T23:46:31.761Z,0.74
2018-12-14T23:48:59.023Z,0.65
2018-12-14T23:51:26.402Z,0.68
2018-12-14T23:53:53.738Z,0.72
2018-12-14T23:56:21.475Z,0.65
2018-12-14T23:58:48.994Z,0.75
